Time;durP1;ratioP1;P1;durP2;ratioP2;P2;SDS_P1;SDS_P2;PMS_P1;PMS_P2;Temp;Humidity;BMP_temperature;BMP_pressure;BME280_temperature;BME280_humidity;BME280_pressure;Samples;Min_cycle;Max_cycle;Signal;HPM_P1;HPM_P2
2023/12/11 00:00:16;;;;;;;7.60;2.70;;;10.50;99.90;;;;;;5047969;28;20426;-81
2023/12/11 00:02:42;;;;;;;8.00;4.13;;;10.50;99.90;;;;;;5038139;28;20454;-85
2023/12/11 00:05:08;;;;;;;8.80;3.33;;;10.50;99.90;;;;;;5039441;28;20192;-84
2023/12/11 00:07:34;;;;;;;9.03;3.70;;;10.50;99.90;;;;;;5032504;28;20522;-85
2023/12/11 00:10:02;;;;;;;9.73;3.30;;;10.60;99.90;;;;;;5025447;28;20441;-84
2023/12/11 00:12:54;;;;;;;10.73;3.33;;;10.50;99.90;;;;;;5032004;28;20479;-83
2023/12/11 00:15:23;;;;;;;9.43;2.93;;;10.50;99.90;;;;;;5019215;28;21290;-84
2023/12/11 00:17:51;;;;;;;10.83;3.10;;;10.50;99.90;;;;;;5032919;28;20426;-84
2023/12/11 00:20:21;;;;;;;9.30;3.20;;;10.50;99.90;;;;;;5058471;28;20423;-85
2023/12/11 00:22:49;;;;;;;10.57;3.80;;;10.50;99.90;;;;;;5037226;28;20936;-83
2023/12/11 00:25:17;;;;;;;13.23;4.13;;;10.50;99.90;;;;;;5040398;28;20477;-82
2023/12/11 00:27:48;;;;;;;6.87;3.47;;;10.50;99.90;;;;;;5065042;28;20495;-84
2023/12/11 00:30:14;;;;;;;18.07;4.33;;;10.50;99.90;;;;;;5026347;28;20458;-84
2023/12/11 00:32:40;;;;;;;12.63;3.97;;;10.50;99.90;;;;;;5045303;28;20533;-85
2023/12/11 00:35:09;;;;;;;6.93;3.63;;;10.50;99.90;;;;;;5016109;28;20493;-84
2023/12/11 00:37:35;;;;;;;12.87;3.50;;;10.50;99.90;;;;;;5048058;28;20438;-84
2023/12/11 00:40:04;;;;;;;11.67;4.60;;;10.50;99.90;;;;;;5019323;28;20438;-84
2023/12/11 00:42:32;;;;;;;10.37;3.40;;;10.50;99.90;;;;;;5051308;28;20431;-84
2023/12/11 00:45:04;;;;;;;14.60;4.40;;;10.50;99.90;;;;;;5065038;28;20559;-83
2023/12/11 00:47:31;;;;;;;9.73;3.97;;;10.50;99.90;;;;;;5033897;28;20423;-84
2023/12/11 00:49:58;;;;;;;14.13;4.20;;;10.50;99.90;;;;;;5046555;28;20464;-84
2023/12/11 00:52:23;;;;;;;11.37;4.80;;;10.50;99.90;;;;;;5028498;28;20569;-84
2023/12/11 00:54:49;;;;;;;7.30;3.50;;;10.50;99.90;;;;;;5053744;28;20444;-85
2023/12/11 00:57:15;;;;;;;15.07;4.57;;;10.50;99.90;;;;;;5037878;28;20511;-85
2023/12/11 00:59:41;;;;;;;7.93;3.40;;;10.50;99.90;;;;;;5005742;28;20287;-84
2023/12/11 01:02:10;;;;;;;17.50;4.10;;;10.50;99.90;;;;;;5045159;28;20512;-84
2023/12/11 01:04:36;;;;;;;14.37;4.80;;;10.60;99.90;;;;;;5034131;28;20454;-84
2023/12/11 01:07:05;;;;;;;12.43;4.27;;;10.50;99.90;;;;;;5007626;28;20467;-85
2023/12/11 01:09:31;;;;;;;15.10;4.07;;;10.50;99.90;;;;;;5010617;28;20447;-84
2023/12/11 01:11:57;;;;;;;12.70;3.90;;;10.60;99.90;;;;;;5053160;28;20478;-84
2023/12/11 01:14:23;;;;;;;11.20;4.30;;;10.50;99.90;;;;;;5037547;28;20422;-85
2023/12/11 01:16:49;;;;;;;14.87;4.00;;;10.50;99.90;;;;;;5070941;28;20447;-83
2023/12/11 01:19:17;;;;;;;13.30;4.20;;;10.50;99.90;;;;;;5056323;28;20499;-83
2023/12/11 01:21:46;;;;;;;14.60;4.17;;;10.50;99.90;;;;;;5038332;28;20472;-84
2023/12/11 01:24:15;;;;;;;15.83;4.47;;;10.50;99.90;;;;;;5058415;28;21160;-84
2023/12/11 01:26:40;;;;;;;11.47;3.73;;;10.50;99.90;;;;;;5027393;28;20497;-84
2023/12/11 01:29:06;;;;;;;14.70;4.10;;;10.50;99.90;;;;;;5051633;28;20464;-83
2023/12/11 01:31:32;;;;;;;10.17;3.90;;;10.50;99.90;;;;;;5009006;28;20755;-84
2023/12/11 01:34:00;;;;;;;11.00;3.77;;;10.50;99.90;;;;;;5032328;28;20525;-83
2023/12/11 01:36:31;;;;;;;14.03;4.33;;;10.50;99.90;;;;;;5033664;28;20446;-84
2023/12/11 01:38:57;;;;;;;18.80;4.40;;;10.50;99.90;;;;;;5056687;28;21064;-85
2023/12/11 01:41:25;;;;;;;16.77;4.37;;;10.50;99.90;;;;;;5053297;28;20447;-85
2023/12/11 01:43:57;;;;;;;14.27;4.60;;;10.50;99.90;;;;;;5036694;28;20419;-85
2023/12/11 01:46:25;;;;;;;16.97;5.23;;;10.50;99.90;;;;;;5036804;28;20745;-84
2023/12/11 01:48:54;;;;;;;16.90;4.47;;;10.50;99.90;;;;;;5018161;28;20459;-85
2023/12/11 01:51:20;;;;;;;14.90;4.77;;;10.50;99.90;;;;;;5026813;28;20439;-85
2023/12/11 01:53:50;;;;;;;20.70;4.77;;;10.50;99.90;;;;;;5052222;28;20577;-85
2023/12/11 01:56:20;;;;;;;13.80;4.37;;;10.50;99.90;;;;;;5037886;28;20478;-84
2023/12/11 01:58:49;;;;;;;17.33;4.70;;;10.50;99.90;;;;;;5017463;28;20438;-85
2023/12/11 02:01:19;;;;;;;10.10;3.60;;;10.50;99.90;;;;;;5058801;28;20463;-85
2023/12/11 02:03:45;;;;;;;11.80;3.77;;;10.50;99.90;;;;;;5025262;28;20440;-85
2023/12/11 02:06:13;;;;;;;18.23;4.40;;;10.50;99.90;;;;;;5004232;28;20441;-85
2023/12/11 02:08:39;;;;;;;13.97;4.20;;;10.50;99.90;;;;;;5014637;28;21243;-85
2023/12/11 02:11:08;;;;;;;14.10;4.03;;;10.50;99.90;;;;;;5050708;28;20431;-84
2023/12/11 02:13:37;;;;;;;13.90;4.43;;;10.50;99.90;;;;;;5043428;28;20467;-85
2023/12/11 02:16:06;;;;;;;17.43;4.73;;;10.50;99.90;;;;;;5051772;28;20454;-84
2023/12/11 02:18:34;;;;;;;15.17;3.80;;;10.50;99.90;;;;;;5047502;28;20435;-85
2023/12/11 02:21:00;;;;;;;14.03;4.00;;;10.50;99.90;;;;;;5035452;28;20439;-85
2023/12/11 02:23:39;;;;;;;13.53;4.63;;;10.50;99.90;;;;;;5028066;28;20434;-83
2023/12/11 02:26:12;;;;;;;18.73;6.60;;;10.50;99.90;;;;;;5027401;28;20480;-85
2023/12/11 02:28:38;;;;;;;19.83;4.80;;;10.50;99.90;;;;;;5039528;28;20462;-85
2023/12/11 02:31:04;;;;;;;13.83;3.50;;;10.50;99.90;;;;;;5036870;28;20425;-85
2023/12/11 02:33:30;;;;;;;15.13;3.50;;;10.50;99.90;;;;;;5040445;28;20478;-85
2023/12/11 02:35:59;;;;;;;14.33;4.27;;;10.50;99.90;;;;;;5058287;28;20430;-86
2023/12/11 02:38:27;;;;;;;13.40;3.53;;;10.50;99.90;;;;;;5018243;28;20443;-85
2023/12/11 02:40:55;;;;;;;20.27;5.93;;;10.50;99.90;;;;;;5035715;28;20821;-84
2023/12/11 02:43:21;;;;;;;19.30;4.60;;;10.50;99.90;;;;;;5034300;28;20439;-86
2023/12/11 02:45:47;;;;;;;11.50;3.97;;;10.50;99.90;;;;;;5034177;28;20518;-85
2023/12/11 02:48:16;;;;;;;14.17;5.13;;;10.50;99.90;;;;;;5040478;28;20458;-84
2023/12/11 02:50:42;;;;;;;18.37;4.30;;;10.50;99.90;;;;;;5000021;28;20443;-86
2023/12/11 02:53:08;;;;;;;16.67;4.60;;;10.50;99.90;;;;;;5000554;28;20462;-82
2023/12/11 02:55:39;;;;;;;13.80;4.10;;;10.50;99.90;;;;;;5033901;28;20494;-85
2023/12/11 02:58:05;;;;;;;18.83;5.07;;;10.50;99.90;;;;;;5059733;28;20437;-84
2023/12/11 03:00:31;;;;;;;15.53;4.50;;;10.50;99.90;;;;;;5053222;28;20434;-84
2023/12/11 03:03:00;;;;;;;21.73;4.80;;;10.50;99.90;;;;;;5051716;28;20436;-85
2023/12/11 03:05:27;;;;;;;15.47;3.73;;;10.50;99.90;;;;;;5025351;28;20534;-85
2023/12/11 03:07:53;;;;;;;11.00;4.37;;;10.50;99.90;;;;;;5029948;28;20871;-84
2023/12/11 03:10:24;;;;;;;16.80;4.17;;;10.50;99.90;;;;;;5017453;28;20450;-85
2023/12/11 03:12:50;;;;;;;14.93;4.50;;;10.50;99.90;;;;;;5044772;28;20520;-86
2023/12/11 03:15:16;;;;;;;11.80;4.23;;;10.50;99.90;;;;;;5027328;28;20437;-83
2023/12/11 03:17:42;;;;;;;13.70;4.77;;;10.50;99.90;;;;;;5009956;28;20457;-85
2023/12/11 03:20:13;;;;;;;16.83;4.47;;;10.50;99.90;;;;;;5039650;28;20516;-84
2023/12/11 03:22:45;;;;;;;8.83;3.70;;;10.50;99.90;;;;;;5033801;28;20435;-85
2023/12/11 03:25:14;;;;;;;10.90;3.73;;;10.50;99.90;;;;;;5048060;28;20439;-85
2023/12/11 03:27:40;;;;;;;13.30;4.60;;;10.50;99.90;;;;;;5033400;28;20448;-85
2023/12/11 03:30:07;;;;;;;21.43;4.37;;;10.50;99.90;;;;;;5033118;28;20419;-84
2023/12/11 03:32:34;;;;;;;13.00;4.27;;;10.50;99.90;;;;;;5023993;23;20499;-70
2023/12/11 03:35:00;;;;;;;15.20;4.50;;;10.50;99.90;;;;;;5018002;28;20428;-69
2023/12/11 03:37:28;;;;;;;16.20;4.90;;;10.50;99.90;;;;;;5011468;28;20416;-70
2023/12/11 03:39:54;;;;;;;20.30;4.77;;;10.50;99.90;;;;;;5003622;28;21011;-69
2023/12/11 03:42:23;;;;;;;14.53;4.70;;;10.50;99.90;;;;;;5001294;28;20943;-70
2023/12/11 03:44:49;;;;;;;13.83;4.07;;;10.50;99.90;;;;;;5012583;23;21147;-40
2023/12/11 03:47:15;;;;;;;12.53;3.60;;;10.50;99.90;;;;;;4996531;28;21061;-37
2023/12/11 03:49:44;;;;;;;12.57;4.90;;;10.50;99.90;;;;;;5010947;28;20427;-39
2023/12/11 03:52:10;;;;;;;14.90;5.10;;;10.50;99.90;;;;;;5014856;28;20459;-37
2023/12/11 03:54:36;;;;;;;12.27;3.73;;;10.50;99.90;;;;;;5005164;28;20449;-39
2023/12/11 03:57:05;;;;;;;21.00;3.80;;;10.50;99.90;;;;;;5008064;28;20498;-40
2023/12/11 03:59:32;;;;;;;14.47;4.00;;;10.50;99.90;;;;;;5012368;28;20479;-39
2023/12/11 04:01:58;;;;;;;9.37;3.90;;;10.50;99.90;;;;;;5018545;28;20416;-39
2023/12/11 04:04:24;;;;;;;11.97;3.80;;;10.50;99.90;;;;;;5006696;28;20531;-38
2023/12/11 04:06:50;;;;;;;9.73;3.83;;;10.50;99.90;;;;;;5006620;28;20606;-41
2023/12/11 04:09:16;;;;;;;12.17;4.17;;;10.50;99.90;;;;;;4993032;28;20444;-39
2023/12/11 04:11:44;;;;;;;18.70;4.93;;;10.50;99.90;;;;;;5005311;28;20481;-40
2023/12/11 04:14:11;;;;;;;17.17;3.67;;;10.50;99.90;;;;;;5013053;28;20456;-39
2023/12/11 04:16:44;;;;;;;18.10;4.60;;;10.50;99.90;;;;;;5012928;28;20443;-39
2023/12/11 04:19:15;;;;;;;12.97;3.83;;;10.50;99.90;;;;;;4999988;28;20446;-38
2023/12/11 04:21:41;;;;;;;18.87;3.90;;;10.50;99.90;;;;;;4993106;28;20431;-40
2023/12/11 04:24:10;;;;;;;12.50;3.30;;;10.50;99.90;;;;;;5006256;28;20447;-39
2023/12/11 04:26:36;;;;;;;9.23;3.83;;;10.50;99.90;;;;;;5009865;28;20453;-40
2023/12/11 04:29:02;;;;;;;18.67;4.20;;;10.50;99.90;;;;;;4962343;28;20897;-37
2023/12/11 04:31:28;;;;;;;13.57;3.70;;;10.50;99.90;;;;;;5010109;28;20490;-39
2023/12/11 04:33:54;;;;;;;15.03;4.40;;;10.50;99.90;;;;;;5010230;28;20463;-37
2023/12/11 04:36:21;;;;;;;18.53;3.97;;;10.50;99.90;;;;;;5020559;28;20442;-40
2023/12/11 04:38:48;;;;;;;12.40;3.47;;;10.50;99.90;;;;;;5018529;28;21291;-40
2023/12/11 04:41:17;;;;;;;14.77;3.80;;;10.50;99.90;;;;;;5002358;28;20444;-40
2023/12/11 04:43:43;;;;;;;14.00;3.83;;;10.50;99.90;;;;;;5016087;28;20447;-40
2023/12/11 04:46:09;;;;;;;11.47;3.80;;;10.50;99.90;;;;;;5015884;28;20735;-40
2023/12/11 04:48:36;;;;;;;10.00;4.40;;;10.50;99.90;;;;;;5019462;28;20448;-37
2023/12/11 04:51:06;;;;;;;13.43;3.60;;;10.50;99.90;;;;;;5009040;28;20444;-40
2023/12/11 04:53:32;;;;;;;11.60;4.30;;;10.50;99.90;;;;;;5011921;28;20490;-40
2023/12/11 04:55:58;;;;;;;13.93;3.90;;;10.50;99.90;;;;;;4984467;28;20456;-38
2023/12/11 04:58:24;;;;;;;11.30;3.73;;;10.50;99.90;;;;;;5016499;28;20491;-38
2023/12/11 05:00:52;;;;;;;13.07;4.40;;;10.50;99.90;;;;;;5000211;28;20439;-40
2023/12/11 05:03:23;;;;;;;13.20;3.17;;;10.50;99.90;;;;;;5006213;28;20567;-38
2023/12/11 05:05:49;;;;;;;10.50;3.47;;;10.50;99.90;;;;;;5008514;28;20453;-38
2023/12/11 05:08:16;;;;;;;10.67;3.23;;;10.50;99.90;;;;;;5007915;28;20510;-40
2023/12/11 05:10:43;;;;;;;6.77;3.10;;;10.50;99.90;;;;;;4998419;28;20493;-38
2023/12/11 05:13:13;;;;;;;7.63;2.93;;;10.50;99.90;;;;;;5004555;28;20547;-38
2023/12/11 05:15:41;;;;;;;11.77;3.10;;;10.50;99.90;;;;;;4986374;28;20450;-40
2023/12/11 05:18:07;;;;;;;8.60;3.33;;;10.50;99.90;;;;;;5010848;28;20427;-38
2023/12/11 05:20:34;;;;;;;14.40;4.00;;;10.50;99.90;;;;;;5000400;28;20444;-40
2023/12/11 05:23:00;;;;;;;15.73;3.23;;;10.50;99.90;;;;;;5020567;28;20866;-41
2023/12/11 05:25:31;;;;;;;11.27;3.20;;;10.50;99.90;;;;;;4996307;28;20448;-39
2023/12/11 05:27:57;;;;;;;13.77;3.53;;;10.50;99.90;;;;;;4994249;28;20423;-35
2023/12/11 05:30:25;;;;;;;14.77;3.30;;;10.50;99.90;;;;;;5011699;28;20428;-40
2023/12/11 05:32:51;;;;;;;13.63;3.50;;;10.40;99.90;;;;;;5018553;28;20499;-40
2023/12/11 05:35:17;;;;;;;10.70;3.40;;;10.50;99.90;;;;;;5000194;28;21081;-38
2023/12/11 05:37:43;;;;;;;7.87;3.27;;;10.50;99.90;;;;;;5018651;28;20945;-41
2023/12/11 05:40:10;;;;;;;10.43;3.97;;;10.50;99.90;;;;;;4993933;28;20499;-40
2023/12/11 05:42:36;;;;;;;10.47;3.60;;;10.50;99.90;;;;;;4985944;28;21048;-40
2023/12/11 05:45:02;;;;;;;20.63;4.20;;;10.50;99.90;;;;;;5012077;28;20463;-35
2023/12/11 05:47:28;;;;;;;8.33;3.17;;;10.50;99.90;;;;;;4993993;28;20490;-41
2023/12/11 05:49:54;;;;;;;8.13;2.87;;;10.50;99.90;;;;;;4985558;28;20468;-37
2023/12/11 05:52:20;;;;;;;10.00;3.53;;;10.50;99.90;;;;;;5012843;28;20561;-39
2023/12/11 05:54:48;;;;;;;10.83;3.40;;;10.50;99.90;;;;;;5014296;28;20578;-39
2023/12/11 05:57:15;;;;;;;8.23;3.97;;;10.50;99.90;;;;;;5018798;28;20817;-40
2023/12/11 05:59:44;;;;;;;9.70;3.47;;;10.40;99.90;;;;;;5014157;28;20423;-36
2023/12/11 06:02:11;;;;;;;13.23;3.33;;;10.50;99.90;;;;;;4994867;28;20853;-30
2023/12/11 06:04:40;;;;;;;10.60;3.93;;;10.50;99.90;;;;;;4995620;28;20472;-28
2023/12/11 06:07:06;;;;;;;13.00;3.40;;;10.40;99.90;;;;;;4984831;28;20448;-29
2023/12/11 06:09:34;;;;;;;13.50;3.57;;;10.50;99.90;;;;;;5010558;28;20485;-29
2023/12/11 06:12:02;;;;;;;12.40;3.93;;;10.40;99.90;;;;;;5011564;28;20437;-32
2023/12/11 06:14:31;;;;;;;14.33;3.40;;;10.40;99.90;;;;;;4970607;28;20457;-32
2023/12/11 06:16:57;;;;;;;17.10;4.27;;;10.50;99.90;;;;;;5002407;28;20771;-31
2023/12/11 06:19:23;;;;;;;10.80;3.63;;;10.50;99.90;;;;;;4984399;28;20787;-29
2023/12/11 06:21:49;;;;;;;8.00;3.00;;;10.50;99.90;;;;;;5005786;28;20409;-30
2023/12/11 06:24:16;;;;;;;9.00;2.97;;;10.40;99.90;;;;;;5017751;28;20468;-29
2023/12/11 06:26:46;;;;;;;8.33;3.27;;;10.50;99.90;;;;;;5003240;28;20447;-35
2023/12/11 06:29:14;;;;;;;8.37;3.37;;;10.40;99.90;;;;;;5017819;28;20440;-34
2023/12/11 06:31:41;;;;;;;12.07;3.53;;;10.40;99.90;;;;;;5012085;28;21371;-29
2023/12/11 06:34:07;;;;;;;7.77;3.40;;;10.50;99.90;;;;;;4991371;28;20514;-33
2023/12/11 06:36:35;;;;;;;10.87;3.60;;;10.40;99.90;;;;;;5014433;28;20904;-31
2023/12/11 06:39:03;;;;;;;11.27;3.90;;;10.50;99.90;;;;;;5014691;28;20459;-33
2023/12/11 06:41:29;;;;;;;11.67;3.20;;;10.40;99.90;;;;;;5003869;28;20440;-34
2023/12/11 06:43:57;;;;;;;14.47;4.70;;;10.50;99.90;;;;;;5002617;28;20440;-30
2023/12/11 06:46:28;;;;;;;9.70;3.20;;;10.50;99.90;;;;;;4982419;28;20465;-32
2023/12/11 06:48:57;;;;;;;7.83;3.70;;;10.50;99.90;;;;;;4999199;28;20444;-33
2023/12/11 06:51:24;;;;;;;5.70;2.73;;;10.50;99.90;;;;;;4982442;28;20964;-31
2023/12/11 06:53:51;;;;;;;7.87;3.27;;;10.50;99.90;;;;;;4983365;28;20463;-30
2023/12/11 06:56:19;;;;;;;11.10;3.03;;;10.50;99.90;;;;;;5008182;28;20440;-33
2023/12/11 06:58:48;;;;;;;8.47;3.20;;;10.50;99.90;;;;;;5011232;28;20935;-35
2023/12/11 07:01:15;;;;;;;15.73;3.33;;;10.50;99.90;;;;;;5011271;28;20439;-29
2023/12/11 07:03:48;;;;;;;10.63;3.00;;;10.50;99.90;;;;;;5013910;28;20875;-33
2023/12/11 07:06:17;;;;;;;13.10;4.07;;;10.50;99.90;;;;;;5001912;28;20452;-31
2023/12/11 07:08:43;;;;;;;7.60;3.80;;;10.50;99.90;;;;;;5009313;28;20459;-29
2023/12/11 07:11:09;;;;;;;10.77;3.90;;;10.50;99.90;;;;;;4990187;28;20428;-34
2023/12/11 07:13:35;;;;;;;10.80;4.23;;;10.50;99.90;;;;;;5009967;28;20468;-32
2023/12/11 07:16:01;;;;;;;15.23;3.43;;;10.50;99.90;;;;;;5007789;28;21027;-31
2023/12/11 07:18:27;;;;;;;13.20;3.40;;;10.50;99.90;;;;;;5015063;28;20907;-32
2023/12/11 07:20:53;;;;;;;9.93;3.57;;;10.50;99.90;;;;;;4991782;28;20440;-31
2023/12/11 07:23:20;;;;;;;14.00;4.20;;;10.50;99.90;;;;;;4993936;28;20427;-33
2023/12/11 07:25:49;;;;;;;12.00;3.10;;;10.50;99.90;;;;;;5012085;28;20818;-33
2023/12/11 07:28:16;;;;;;;11.03;3.63;;;10.50;99.90;;;;;;4991418;28;20451;-31
2023/12/11 07:30:44;;;;;;;11.77;3.60;;;10.50;99.90;;;;;;5005357;28;20424;-32
2023/12/11 07:33:11;;;;;;;13.40;3.87;;;10.50;99.90;;;;;;5008870;28;20472;-32
2023/12/11 07:35:37;;;;;;;13.33;4.13;;;10.50;99.90;;;;;;5006438;28;20444;-33
2023/12/11 07:38:03;;;;;;;13.47;3.37;;;10.50;99.90;;;;;;4999744;28;20432;-32
2023/12/11 07:40:32;;;;;;;14.53;3.00;;;10.50;99.90;;;;;;4988845;28;20421;-30
2023/12/11 07:42:59;;;;;;;10.63;3.43;;;10.50;99.90;;;;;;4999886;28;20514;-32
2023/12/11 07:45:26;;;;;;;6.50;2.70;;;10.50;99.90;;;;;;4986877;28;20539;-32
2023/12/11 07:47:52;;;;;;;8.97;4.07;;;10.50;99.90;;;;;;5001303;28;20479;-32
2023/12/11 07:50:20;;;;;;;13.53;3.63;;;10.50;99.90;;;;;;5002731;28;20436;-30
2023/12/11 07:52:48;;;;;;;12.77;3.97;;;10.50;99.90;;;;;;5000047;28;20468;-30
2023/12/11 07:55:15;;;;;;;9.70;3.50;;;10.50;99.90;;;;;;5002193;28;20447;-33
2023/12/11 07:57:41;;;;;;;10.03;4.03;;;10.50;99.90;;;;;;5000058;28;20440;-31
2023/12/11 08:00:07;;;;;;;8.27;3.07;;;10.50;99.90;;;;;;5001159;28;20488;-29
2023/12/11 08:02:37;;;;;;;19.87;4.07;;;10.50;99.90;;;;;;4989188;28;20471;-29
2023/12/11 08:05:03;;;;;;;21.13;5.23;;;10.40;99.90;;;;;;5006755;28;20443;-29
2023/12/11 08:07:30;;;;;;;21.53;4.97;;;10.20;99.90;;;;;;5004650;28;20501;-29
2023/12/11 08:09:56;;;;;;;17.20;4.70;;;10.20;99.90;;;;;;5010543;28;20433;-34
2023/12/11 08:12:25;;;;;;;12.43;3.43;;;10.30;99.90;;;;;;4999127;28;20511;-29
2023/12/11 08:14:53;;;;;;;21.57;4.20;;;10.40;99.90;;;;;;5003604;28;20444;-33
2023/12/11 08:17:20;;;;;;;15.93;4.00;;;10.50;99.90;;;;;;4972860;28;20470;-32
2023/12/11 08:19:46;;;;;;;14.00;3.60;;;10.60;99.90;;;;;;5002837;28;20452;-36
2023/12/11 08:22:13;;;;;;;13.20;4.00;;;10.50;99.90;;;;;;5009016;28;20423;-30
2023/12/11 08:24:39;;;;;;;12.40;4.10;;;10.60;99.90;;;;;;4988508;28;20456;-32
2023/12/11 08:27:07;;;;;;;13.27;3.97;;;10.60;99.90;;;;;;4996627;28;20528;-32
2023/12/11 08:29:36;;;;;;;9.27;4.03;;;10.60;99.90;;;;;;5011431;28;20501;-31
2023/12/11 08:32:03;;;;;;;15.03;3.63;;;10.60;99.90;;;;;;5001672;28;20436;-30
2023/12/11 08:34:29;;;;;;;11.77;3.80;;;10.60;99.90;;;;;;4978232;28;20530;-36
2023/12/11 08:36:58;;;;;;;14.27;4.37;;;10.60;99.90;;;;;;4990980;28;20458;-32
2023/12/11 08:39:25;;;;;;;11.10;3.50;;;10.60;99.90;;;;;;4999069;28;20421;-30
2023/12/11 08:41:53;;;;;;;13.20;4.27;;;10.60;99.90;;;;;;5009557;28;20496;-30
2023/12/11 08:44:23;;;;;;;15.30;3.80;;;10.60;99.90;;;;;;5006391;28;21047;-30
2023/12/11 08:46:49;;;;;;;12.07;3.80;;;10.60;99.90;;;;;;4994694;28;20440;-30
2023/12/11 08:49:15;;;;;;;15.20;3.90;;;10.60;99.90;;;;;;4983212;28;20423;-29
2023/12/11 08:51:42;;;;;;;13.50;4.17;;;10.60;99.90;;;;;;5011376;28;20884;-30
2023/12/11 08:54:08;;;;;;;9.93;3.40;;;10.60;99.90;;;;;;5006046;28;20508;-31
2023/12/11 08:56:39;;;;;;;11.83;3.30;;;10.60;99.90;;;;;;4987147;28;20440;-29
2023/12/11 08:59:05;;;;;;;8.97;3.53;;;10.60;99.90;;;;;;4982464;28;20478;-28
2023/12/11 09:01:35;;;;;;;14.30;3.60;;;10.60;99.90;;;;;;5016142;28;20430;-34
2023/12/11 09:04:06;;;;;;;13.33;3.10;;;10.60;99.90;;;;;;5002697;28;20479;-30
2023/12/11 09:06:32;;;;;;;12.07;3.83;;;10.60;99.90;;;;;;5009472;28;20486;-31
2023/12/11 09:08:58;;;;;;;7.90;3.03;;;10.60;99.90;;;;;;5002799;28;20440;-32
2023/12/11 09:11:27;;;;;;;12.73;3.70;;;10.60;99.90;;;;;;5007526;28;21219;-33
2023/12/11 09:13:56;;;;;;;13.53;3.40;;;10.60;99.90;;;;;;4984726;28;20472;-33
2023/12/11 09:16:21;;;;;;;11.90;3.30;;;10.60;99.90;;;;;;5013681;28;20563;-29
2023/12/11 09:18:51;;;;;;;8.10;3.10;;;10.60;99.90;;;;;;4995553;28;20443;-30
2023/12/11 09:21:17;;;;;;;11.60;2.97;;;10.60;99.90;;;;;;5013060;28;20839;-28
2023/12/11 09:23:46;;;;;;;12.03;3.60;;;10.60;99.90;;;;;;5003906;28;20452;-32
2023/12/11 09:26:20;;;;;;;10.53;3.27;;;10.60;99.90;;;;;;5017735;28;20430;-34
2023/12/11 09:28:46;;;;;;;10.77;3.20;;;10.60;99.90;;;;;;5019244;28;21214;-32
2023/12/11 09:31:13;;;;;;;9.90;3.07;;;10.60;99.90;;;;;;5004622;28;20429;-30
2023/12/11 09:33:40;;;;;;;11.63;3.60;;;10.60;99.90;;;;;;5001487;28;20471;-33
2023/12/11 09:36:06;;;;;;;8.97;3.00;;;10.60;99.90;;;;;;5001674;28;20460;-29
2023/12/11 09:38:35;;;;;;;8.17;3.60;;;10.60;99.90;;;;;;5012416;28;20448;-37
2023/12/11 09:41:06;;;;;;;11.47;3.40;;;10.60;99.90;;;;;;5006412;28;20460;-34
2023/12/11 09:43:36;;;;;;;8.70;2.73;;;10.60;99.90;;;;;;5005699;28;20423;-40
2023/12/11 09:46:06;;;;;;;13.63;3.77;;;10.60;99.90;;;;;;4986235;28;20492;-40
2023/12/11 09:48:35;;;;;;;7.07;2.90;;;10.60;99.90;;;;;;4999469;28;20459;-40
2023/12/11 09:51:04;;;;;;;11.93;3.03;;;10.60;99.90;;;;;;4980475;28;20471;-38
2023/12/11 09:53:32;;;;;;;12.63;2.93;;;10.60;99.90;;;;;;5001825;28;20900;-39
2023/12/11 09:55:58;;;;;;;9.80;3.50;;;10.60;99.90;;;;;;5010120;28;20439;-39
2023/12/11 09:58:27;;;;;;;6.40;2.77;;;10.60;99.90;;;;;;5018104;28;20466;-40
2023/12/11 10:01:00;;;;;;;10.00;3.20;;;10.60;99.90;;;;;;4999379;28;20436;-39
2023/12/11 10:03:30;;;;;;;11.23;3.60;;;10.60;99.90;;;;;;5018136;28;20447;-39
2023/12/11 10:05:59;;;;;;;17.60;3.43;;;10.60;99.90;;;;;;5009622;28;20449;-40
2023/12/11 10:08:27;;;;;;;7.30;3.03;;;10.60;99.90;;;;;;5013735;28;20530;-39
2023/12/11 10:11:12;;;;;;;13.97;5.00;;;10.70;99.90;;;;;;5006220;28;20425;-38
2023/12/11 10:13:39;;;;;;;12.40;4.00;;;10.60;99.90;;;;;;5000805;28;20582;-40
2023/12/11 10:16:25;;;;;;;13.03;3.47;;;10.60;99.90;;;;;;5011741;28;20529;-39
2023/12/11 10:18:54;;;;;;;10.40;3.33;;;10.60;99.90;;;;;;5011936;28;20819;-37
2023/12/11 10:21:22;;;;;;;7.57;2.87;;;10.60;99.90;;;;;;5006355;28;20428;-40
2023/12/11 10:24:02;;;;;;;10.33;3.40;;;10.60;99.90;;;;;;5016811;28;20470;-41
2023/12/11 10:26:30;;;;;;;8.30;3.30;;;10.60;99.90;;;;;;5002776;28;21315;-40
2023/12/11 10:28:57;;;;;;;10.50;3.60;;;10.70;99.90;;;;;;4993587;28;20433;-39
2023/12/11 10:31:35;;;;;;;7.67;3.20;;;10.70;99.90;;;;;;5003807;28;20497;-41
2023/12/11 10:34:03;;;;;;;17.37;4.07;;;10.70;99.90;;;;;;5011800;28;20471;-39
2023/12/11 10:36:31;;;;;;;11.93;3.73;;;10.70;99.90;;;;;;4998597;28;20428;-41
2023/12/11 10:39:10;;;;;;;7.53;3.00;;;10.70;99.90;;;;;;4994161;28;20543;-36
2023/12/11 10:41:39;;;;;;;15.97;3.50;;;10.70;99.90;;;;;;5003666;28;20523;-39
2023/12/11 10:44:06;;;;;;;15.17;3.93;;;10.70;99.90;;;;;;5017972;28;20466;-41
2023/12/11 10:46:35;;;;;;;6.70;3.17;;;10.70;99.90;;;;;;5019194;28;20435;-38
2023/12/11 10:49:01;;;;;;;7.90;3.20;;;10.70;99.90;;;;;;4984260;28;20500;-41
2023/12/11 10:51:32;;;;;;;16.63;3.70;;;10.70;99.90;;;;;;5000585;28;20538;-40
2023/12/11 10:53:58;;;;;;;9.73;3.70;;;10.70;99.90;;;;;;4996904;28;20460;-41
2023/12/11 10:56:24;;;;;;;11.30;3.40;;;10.70;99.90;;;;;;4992787;28;20482;-36
2023/12/11 10:58:51;;;;;;;10.87;4.27;;;10.70;99.90;;;;;;4983072;28;20435;-35
2023/12/11 11:01:18;;;;;;;10.50;3.53;;;10.70;99.90;;;;;;4998055;28;20494;-31
2023/12/11 11:03:44;;;;;;;5.70;2.70;;;10.70;99.90;;;;;;5017708;28;20439;-34
2023/12/11 11:06:15;;;;;;;10.60;3.20;;;10.70;99.90;;;;;;5015673;28;20451;-33
2023/12/11 11:08:51;;;;;;;6.67;3.10;;;10.70;99.90;;;;;;5016230;28;20436;-31
2023/12/11 11:11:27;;;;;;;11.63;3.27;;;10.70;99.90;;;;;;5009399;28;20454;-36
2023/12/11 11:14:35;;;;;;;14.10;3.60;;;10.70;99.90;;;;;;4991565;28;20483;-33
2023/12/11 11:17:01;;;;;;;6.70;3.03;;;10.70;99.90;;;;;;5001089;28;20420;-35
2023/12/11 11:19:29;;;;;;;8.90;2.90;;;10.70;99.90;;;;;;5016550;28;21346;-35
2023/12/11 11:22:18;;;;;;;7.60;3.00;;;10.70;99.90;;;;;;5016355;28;21142;-32
2023/12/11 11:24:47;;;;;;;8.87;3.23;;;10.70;99.90;;;;;;4991759;28;20510;-33
2023/12/11 11:27:53;;;;;;;7.90;3.60;;;10.70;99.90;;;;;;5011000;28;21036;-33
2023/12/11 11:30:46;;;;;;;7.80;3.40;;;10.70;99.90;;;;;;4954902;28;20467;-32
2023/12/11 11:33:15;;;;;;;8.93;3.20;;;10.70;99.90;;;;;;4997650;28;20511;-29
2023/12/11 11:35:47;;;;;;;6.70;3.17;;;10.70;99.90;;;;;;5017273;28;20943;-31
2023/12/11 11:38:15;;;;;;;9.37;3.37;;;10.70;99.90;;;;;;5009450;28;20451;-33
2023/12/11 11:40:44;;;;;;;7.80;2.90;;;10.70;99.90;;;;;;4993996;28;20447;-33
2023/12/11 11:43:13;;;;;;;9.67;4.17;;;10.70;99.90;;;;;;5003185;28;20447;-34
2023/12/11 11:45:39;;;;;;;6.77;3.30;;;10.70;99.90;;;;;;5009097;28;20455;-34
2023/12/11 11:48:06;;;;;;;5.63;2.80;;;10.70;99.90;;;;;;5016702;28;20427;-38
2023/12/11 11:50:34;;;;;;;6.40;2.70;;;10.70;99.90;;;;;;5015816;28;20440;-32
2023/12/11 11:53:08;;;;;;;6.40;3.27;;;10.80;99.90;;;;;;5015794;28;20491;-32
2023/12/11 11:55:38;;;;;;;7.70;2.90;;;10.80;99.90;;;;;;5010005;28;20463;-32
2023/12/11 11:58:14;;;;;;;7.90;3.03;;;10.80;99.90;;;;;;5015110;28;21078;-33
2023/12/11 12:00:41;;;;;;;8.80;3.80;;;10.80;99.90;;;;;;5008316;28;20518;-35
2023/12/11 12:03:11;;;;;;;10.30;3.30;;;10.80;99.90;;;;;;5008955;28;20537;-35
2023/12/11 12:05:52;;;;;;;6.37;2.83;;;10.80;99.90;;;;;;5006804;28;20456;-31
2023/12/11 12:08:18;;;;;;;9.23;3.47;;;10.80;99.90;;;;;;5006266;28;20435;-35
2023/12/11 12:10:45;;;;;;;6.83;2.60;;;10.80;99.90;;;;;;5016195;28;20431;-36
2023/12/11 12:13:15;;;;;;;5.53;2.83;;;10.80;99.90;;;;;;5013732;28;20525;-31
2023/12/11 12:15:44;;;;;;;3.40;2.10;;;10.80;99.90;;;;;;5016068;28;21364;-33
2023/12/11 12:18:12;;;;;;;7.30;3.07;;;10.80;99.90;;;;;;4993996;28;21149;-32
2023/12/11 12:20:42;;;;;;;6.33;2.60;;;10.80;99.90;;;;;;5016014;28;20426;-32
2023/12/11 12:23:08;;;;;;;9.50;3.07;;;10.80;99.90;;;;;;5014360;28;20451;-37
2023/12/11 12:25:37;;;;;;;4.47;2.40;;;10.80;99.90;;;;;;5009638;28;20455;-33
2023/12/11 12:28:14;;;;;;;10.00;2.90;;;10.80;99.90;;;;;;4987384;28;20947;-34
2023/12/11 12:30:43;;;;;;;3.87;1.63;;;10.80;99.90;;;;;;5004448;28;20554;-37
2023/12/11 12:33:12;;;;;;;4.37;2.37;;;10.80;99.90;;;;;;5011910;28;20842;-33
2023/12/11 12:35:39;;;;;;;2.30;2.10;;;10.80;99.90;;;;;;5001277;28;20489;-32
2023/12/11 12:38:08;;;;;;;3.93;2.20;;;10.80;99.90;;;;;;5011858;28;20431;-36
2023/12/11 12:40:36;;;;;;;4.10;2.33;;;10.70;99.90;;;;;;5013145;28;20653;-31
2023/12/11 12:43:15;;;;;;;3.40;2.13;;;10.70;99.90;;;;;;5016735;28;20423;-35
2023/12/11 12:45:44;;;;;;;5.13;2.07;;;10.70;99.90;;;;;;5018933;28;20493;-30